Time;durP1;ratioP1;P1;durP2;ratioP2;P2;SDS_P1;SDS_P2;PMS_P1;PMS_P2;Temp;Humidity;BMP_temperature;BMP_pressure;BME280_temperature;BME280_humidity;BME280_pressure;Samples;Min_cycle;Max_cycle;Signal;HPM_P1;HPM_P2
2022/05/30 00:00:09;;;;;;;9.50;6.50;;;;;;;12.94;67.02;99896.52;106294;1270;23949;-73
2022/05/30 00:02:36;;;;;;;10.30;6.90;;;;;;;12.98;66.94;99895.72;106260;1271;22742;-73
2022/05/30 00:05:03;;;;;;;9.10;6.70;;;;;;;12.97;66.93;99895.39;106154;1271;24335;-72
2022/05/30 00:07:30;;;;;;;11.50;7.40;;;;;;;12.97;66.91;99891.31;106121;1271;23078;-71
2022/05/30 00:09:57;;;;;;;9.40;6.60;;;;;;;12.98;66.79;99889.34;106259;1271;22535;-72
2022/05/30 00:12:24;;;;;;;11.50;7.10;;;;;;;13.00;66.68;99877.27;106097;1271;25298;-69
2022/05/30 00:14:51;;;;;;;10.70;6.90;;;;;;;12.98;66.41;99878.20;106234;1270;22549;-73
2022/05/30 00:17:18;;;;;;;10.10;7.30;;;;;;;12.90;66.59;99871.20;106475;1270;25375;-74
2022/05/30 00:19:45;;;;;;;10.10;7.00;;;;;;;12.92;66.72;99873.09;106212;1271;25264;-70
2022/05/30 00:22:14;;;;;;;11.20;6.90;;;;;;;12.92;66.80;99877.52;106354;1271;25246;-70
2022/05/30 00:24:43;;;;;;;9.60;6.60;;;;;;;12.91;66.79;99868.00;106075;1273;22569;-74
2022/05/30 00:27:11;;;;;;;9.60;6.00;;;;;;;12.86;66.85;99860.34;106308;1270;22492;-72
2022/05/30 00:29:39;;;;;;;11.30;6.60;;;;;;;12.85;66.74;99857.72;106422;1270;25353;-70
2022/05/30 00:32:07;;;;;;;11.20;6.60;;;;;;;12.84;66.71;99863.23;106422;1271;25258;-70
2022/05/30 00:34:35;;;;;;;9.90;6.60;;;;;;;12.83;66.83;99864.13;106383;1270;22534;-75
2022/05/30 00:37:03;;;;;;;8.80;6.30;;;;;;;12.82;66.86;99859.39;106394;1270;22523;-72
2022/05/30 00:39:30;;;;;;;10.80;7.00;;;;;;;12.86;66.94;99859.80;105989;1271;22741;-74
2022/05/30 00:42:09;;;;;;;8.20;6.80;;;;;;;12.86;66.78;99855.59;106057;1274;22600;-69
2022/05/30 00:44:36;;;;;;;12.50;7.30;;;;;;;12.86;66.96;99855.91;106399;1271;23535;-72
2022/05/30 00:47:04;;;;;;;10.70;6.90;;;;;;;12.87;66.91;99860.33;106311;1271;24252;-71
2022/05/30 00:49:31;;;;;;;11.20;7.40;;;;;;;12.84;66.93;99859.16;106183;1271;23118;-67
2022/05/30 00:52:02;;;;;;;10.20;6.60;;;;;;;12.78;67.12;99851.01;105957;1272;24379;-72
2022/05/30 00:54:42;;;;;;;10.50;6.60;;;;;;;12.80;67.17;99848.14;106366;1270;22531;-70
2022/05/30 00:57:21;;;;;;;9.60;6.70;;;;;;;12.83;67.28;99844.16;106155;1271;22702;-70
2022/05/30 00:59:59;;;;;;;;;;;;;;;12.85;67.35;99839.51;106472;1271;22449;-73
2022/05/30 01:02:30;;;;;;;9.70;6.30;;;;;;;12.87;67.47;99841.05;106171;1271;25532;-75
2022/05/30 01:07:46;;;;;;;9.60;6.60;;;;;;;12.87;67.47;99832.21;106352;1272;25242;-74
2022/05/30 01:10:19;;;;;;;9.90;7.00;;;;;;;12.88;67.61;99835.20;106416;1270;22616;-76
2022/05/30 01:12:55;;;;;;;10.60;7.10;;;;;;;12.89;67.67;99831.29;106353;1272;22544;-70
2022/05/30 01:15:30;;;;;;;10.80;6.70;;;;;;;12.86;67.59;99828.70;106387;1271;22544;-73
2022/05/30 01:18:06;;;;;;;8.10;6.20;;;;;;;12.86;67.78;99827.83;106245;1271;25250;-74
2022/05/30 01:20:39;;;;;;;11.60;6.10;;;;;;;12.86;67.70;99828.53;106211;1271;22690;-74
2022/05/30 01:23:27;;;;;;;9.30;6.80;;;;;;;12.82;67.62;99827.05;106039;1273;22556;-72
2022/05/30 01:26:29;;;;;;;8.20;6.30;;;;;;;12.81;67.84;99824.60;106175;1271;26514;-72
2022/05/30 01:29:06;;;;;;;10.80;7.40;;;;;;;12.79;67.99;99821.30;106196;1271;25240;-75
2022/05/30 01:31:33;;;;;;;10.80;7.40;;;;;;;12.82;68.31;99821.04;106171;1271;25327;-73
2022/05/30 01:34:01;;;;;;;12.30;7.20;;;;;;;12.86;68.24;99816.87;106168;1272;25202;-71
2022/05/30 01:36:31;;;;;;;10.10;7.50;;;;;;;12.85;68.28;99808.23;106200;1273;23969;-71
2022/05/30 01:38:58;;;;;;;8.50;6.40;;;;;;;12.81;68.07;99805.52;106186;1270;22766;-76
2022/05/30 01:41:53;;;;;;;8.00;6.50;;;;;;;12.70;68.15;99807.59;106403;1270;25340;-75
2022/05/30 01:44:20;;;;;;;9.00;6.20;;;;;;;12.57;68.44;99797.17;106315;1273;22546;-72
2022/05/30 01:46:48;;;;;;;7.60;6.50;;;;;;;12.60;68.85;99795.67;106288;1271;22552;-73
2022/05/30 01:49:15;;;;;;;13.80;6.80;;;;;;;12.62;69.00;99794.73;106148;1271;22554;-70
2022/05/30 01:51:44;;;;;;;8.00;6.40;;;;;;;12.61;69.10;99788.23;106119;1273;24227;-71
2022/05/30 01:54:12;;;;;;;9.90;6.50;;;;;;;12.62;69.09;99788.04;106009;1271;22531;-73
2022/05/30 01:57:06;;;;;;;8.30;6.70;;;;;;;12.55;68.93;99789.61;106017;1271;25410;-72
2022/05/30 01:59:40;;;;;;;9.00;6.70;;;;;;;12.50;69.11;99790.09;105899;1271;22695;-79
2022/05/30 02:02:21;;;;;;;10.90;6.90;;;;;;;12.48;69.27;99784.84;106184;1271;23398;-72
2022/05/30 02:04:48;;;;;;;10.10;6.60;;;;;;;12.51;69.34;99786.18;106175;1270;22542;-72
2022/05/30 02:07:15;;;;;;;9.20;5.90;;;;;;;12.50;69.31;99783.05;106110;1270;22550;-74
2022/05/30 02:09:42;;;;;;;7.60;6.30;;;;;;;12.48;69.43;99783.29;106342;1270;22564;-73
2022/05/30 02:12:10;;;;;;;11.80;7.00;;;;;;;12.47;69.69;99778.69;106320;1271;25652;-72
2022/05/30 02:14:53;;;;;;;7.50;6.60;;;;;;;12.55;69.63;99785.03;106345;1271;22690;-74
2022/05/30 02:17:20;;;;;;;9.80;6.90;;;;;;;12.55;69.56;99783.96;106453;1271;23060;-75
2022/05/30 02:19:47;;;;;;;9.30;6.60;;;;;;;12.51;69.33;99787.60;106292;1271;23125;-73
2022/05/30 02:22:21;;;;;;;7.00;6.20;;;;;;;12.44;69.43;99791.15;106266;1273;26520;-74
2022/05/30 02:24:48;;;;;;;9.30;6.80;;;;;;;12.35;69.58;99796.31;106302;1271;24358;-70
2022/05/30 02:27:17;;;;;;;9.00;6.70;;;;;;;12.29;69.80;99797.53;106261;1271;22685;-74
2022/05/30 02:29:44;;;;;;;9.10;5.80;;;;;;;12.29;69.89;99804.27;106107;1271;22605;-72
2022/05/30 02:32:14;;;;;;;8.50;5.70;;;;;;;12.27;69.98;99801.64;106245;1272;22568;-72
2022/05/30 02:37:27;;;;;;;10.90;6.70;;;;;;;12.34;70.26;99810.83;106164;1271;25396;-74
2022/05/30 02:39:58;;;;;;;6.70;6.00;;;;;;;12.42;70.30;99816.46;106215;1271;22564;-78
2022/05/30 02:42:55;;;;;;;8.50;6.10;;;;;;;12.45;70.09;99810.21;106331;1271;22563;-74
2022/05/30 02:45:22;;;;;;;8.90;6.70;;;;;;;12.46;69.91;99817.95;106140;1272;24221;-75
2022/05/30 02:47:49;;;;;;;10.40;6.50;;;;;;;12.42;69.70;99822.83;106171;1271;22554;-73
2022/05/30 02:50:17;;;;;;;8.60;5.70;;;;;;;12.40;69.83;99819.70;106176;1272;22567;-72
2022/05/30 02:52:45;;;;;;;8.30;4.70;;;;;;;12.41;69.53;99816.84;105964;1277;22561;-75
2022/05/30 02:55:17;;;;;;;5.90;4.80;;;;;;;12.36;69.24;99818.19;106021;1277;22534;-71
2022/05/30 02:57:52;;;;;;;6.80;4.90;;;;;;;12.32;68.91;99820.77;105999;1277;22543;-73
2022/05/30 03:00:20;;;;;;;8.20;4.70;;;;;;;12.29;68.77;99822.44;106003;1278;22617;-73
2022/05/30 03:02:50;;;;;;;7.30;4.20;;;;;;;12.27;68.97;99821.26;105834;1278;22652;-70
2022/05/30 03:05:17;;;;;;;6.50;3.70;;;;;;;12.26;68.52;99820.20;105963;1278;25313;-74
2022/05/30 03:07:45;;;;;;;4.50;3.30;;;;;;;12.21;68.29;99816.80;105938;1277;22628;-83
2022/05/30 03:10:30;;;;;;;7.60;3.80;;;;;;;12.18;68.06;99819.19;106024;1271;22530;-72
2022/05/30 03:12:59;;;;;;;6.40;3.60;;;;;;;12.15;68.15;99821.71;106307;1271;22561;-72
2022/05/30 03:15:26;;;;;;;5.60;4.00;;;;;;;12.15;68.64;99824.89;106148;1271;22544;-71
2022/05/30 03:17:54;;;;;;;4.80;3.10;;;;;;;12.21;68.87;99827.05;106146;1271;22555;-74
2022/05/30 03:20:22;;;;;;;3.60;3.00;;;;;;;12.22;68.54;99823.14;106103;1272;22528;-72
2022/05/30 03:22:49;;;;;;;4.30;3.10;;;;;;;12.11;68.46;99823.93;106252;1271;22564;-69
2022/05/30 03:25:19;;;;;;;5.50;3.30;;;;;;;12.04;68.54;99822.48;106073;1271;22525;-70
2022/05/30 03:27:55;;;;;;;4.70;3.20;;;;;;;11.97;68.80;99826.70;106039;1271;23023;-70
2022/05/30 03:30:23;;;;;;;4.00;3.00;;;;;;;11.94;69.10;99828.54;105944;1274;22583;-72
2022/05/30 03:32:50;;;;;;;4.90;3.10;;;;;;;11.96;69.40;99831.14;105896;1274;22696;-73
2022/05/30 03:35:18;;;;;;;6.90;2.70;;;;;;;12.00;69.76;99836.34;106222;1271;25313;-73
2022/05/30 03:38:07;;;;;;;7.00;3.20;;;;;;;12.07;69.73;99828.61;106115;1271;22865;-72
2022/05/30 03:40:53;;;;;;;2.60;2.40;;;;;;;12.14;69.41;99824.02;106039;1271;24296;-73
2022/05/30 03:43:38;;;;;;;6.90;3.70;;;;;;;12.16;69.16;99819.74;105966;1271;25595;-73
2022/05/30 03:46:05;;;;;;;3.50;2.90;;;;;;;12.12;69.62;99815.27;106198;1271;22707;-71
2022/05/30 03:48:32;;;;;;;4.60;3.40;;;;;;;12.12;69.94;99819.15;106189;1271;22553;-71
2022/05/30 03:51:02;;;;;;;4.70;3.20;;;;;;;12.13;70.19;99819.28;106247;1271;22603;-71
2022/05/30 03:53:29;;;;;;;5.40;3.70;;;;;;;12.09;70.01;99816.56;105974;1271;24313;-74
2022/05/30 03:55:57;;;;;;;4.60;2.90;;;;;;;12.01;70.10;99815.84;106063;1272;22549;-75
2022/05/30 03:58:23;;;;;;;7.90;3.50;;;;;;;11.98;70.50;99815.94;105822;1275;22563;-76
2022/05/30 04:00:51;;;;;;;4.60;2.90;;;;;;;11.96;70.42;99814.03;106285;1274;23238;-76
2022/05/30 04:03:18;;;;;;;4.00;3.00;;;;;;;11.99;70.66;99822.41;106208;1271;25349;-75
2022/05/30 04:05:46;;;;;;;3.70;3.10;;;;;;;12.07;70.88;99823.83;106158;1271;22570;-76
2022/05/30 04:08:13;;;;;;;4.20;3.10;;;;;;;12.13;71.04;99822.46;106009;1272;22694;-74
2022/05/30 04:10:59;;;;;;;5.00;3.70;;;;;;;12.18;70.92;99819.70;106105;1274;23056;-74
2022/05/30 04:13:45;;;;;;;;;;;;;;;12.15;70.88;99818.70;106221;1271;22668;-74
2022/05/30 04:16:15;;;;;;;3.40;3.10;;;;;;;12.12;71.15;99814.55;106155;1271;25254;-76
2022/05/30 04:18:44;;;;;;;5.90;3.30;;;;;;;12.09;71.04;99812.50;106219;1271;25540;-75
2022/05/30 04:21:12;;;;;;;5.60;3.30;;;;;;;12.09;71.34;99808.97;106046;1271;24224;-77
2022/05/30 04:23:42;;;;;;;3.70;2.70;;;;;;;12.13;71.13;99808.88;106343;1271;22726;-77
2022/05/30 04:26:15;;;;;;;4.80;3.50;;;;;;;12.16;70.80;99803.51;106170;1271;22544;-77
2022/05/30 04:28:46;;;;;;;6.80;3.20;;;;;;;12.14;70.50;99798.79;106191;1271;22545;-79
2022/05/30 04:31:33;;;;;;;7.10;3.60;;;;;;;12.04;70.43;99792.30;106012;1271;22531;-78
2022/05/30 04:34:00;;;;;;;5.70;3.70;;;;;;;11.95;70.52;99794.29;106225;1270;25465;-77
2022/05/30 04:36:27;;;;;;;4.60;3.40;;;;;;;11.91;70.94;99793.31;106137;1270;22538;-77
2022/05/30 04:38:55;;;;;;;5.50;3.30;;;;;;;11.93;71.13;99793.27;105971;1273;22552;-79
2022/05/30 04:41:40;;;;;;;3.90;3.20;;;;;;;11.91;71.49;99797.38;105964;1271;22626;-78
2022/05/30 04:44:26;;;;;;;3.50;2.90;;;;;;;11.89;71.54;99792.66;106118;1271;22685;-78
2022/05/30 04:47:04;;;;;;;4.50;3.40;;;;;;;11.76;71.64;99787.86;106072;1271;22568;-79
2022/05/30 04:49:33;;;;;;;7.80;3.90;;;;;;;11.76;72.33;99788.04;106166;1271;25250;-80
2022/05/30 04:52:00;;;;;;;9.80;3.70;;;;;;;11.81;72.38;99788.09;106073;1271;24262;-80
2022/05/30 04:54:27;;;;;;;9.20;4.80;;;;;;;11.89;72.37;99784.55;106308;1271;22553;-77
2022/05/30 04:57:00;;;;;;;5.70;4.40;;;;;;;11.93;72.49;99785.87;106157;1271;22701;-78
2022/05/30 04:59:29;;;;;;;6.80;3.80;;;;;;;11.99;72.69;99782.71;106031;1273;22598;-74
2022/05/30 05:02:00;;;;;;;5.30;3.60;;;;;;;12.05;72.64;99792.11;106087;1271;22528;-76
2022/05/30 05:04:28;;;;;;;4.60;3.70;;;;;;;12.11;72.66;99791.63;106036;1272;22785;-76
2022/05/30 05:06:55;;;;;;;5.60;3.50;;;;;;;12.18;72.52;99791.11;106061;1272;25317;-80
2022/05/30 05:09:34;;;;;;;5.30;3.90;;;;;;;12.25;72.67;99794.48;106096;1270;23409;-77
2022/05/30 05:12:19;;;;;;;4.80;4.10;;;;;;;12.34;72.87;99799.71;106180;1270;24364;-77
2022/05/30 05:15:06;;;;;;;6.10;4.40;;;;;;;12.40;72.81;99796.73;106192;1271;22569;-78
2022/05/30 05:18:03;;;;;;;7.90;3.40;;;;;;;12.40;72.71;99795.86;106142;1271;23193;-79
2022/05/30 05:20:40;;;;;;;5.80;3.00;;;;;;;12.42;72.83;99795.98;106040;1271;24844;-75
2022/05/30 05:23:07;;;;;;;5.60;3.40;;;;;;;12.45;72.87;99797.67;106063;1270;22707;-77
2022/05/30 05:25:50;;;;;;;5.30;3.90;;;;;;;12.48;72.75;99792.29;105973;1273;22547;-80
2022/05/30 05:28:47;;;;;;;6.70;5.70;;;;;;;12.48;72.61;99790.51;105896;1273;24288;-75
2022/05/30 05:31:21;;;;;;;7.20;5.10;;;;;;;12.44;72.72;99791.87;106031;1272;22619;-78
2022/05/30 05:33:51;;;;;;;10.40;5.30;;;;;;;12.46;73.04;99791.09;106098;1273;22619;-80
2022/05/30 05:36:20;;;;;;;6.70;5.00;;;;;;;12.50;72.91;99788.70;106342;1272;24355;-78
2022/05/30 05:38:48;;;;;;;7.00;4.70;;;;;;;12.53;72.89;99793.54;106832;1273;22794;-87
2022/05/30 05:41:33;;;;;;;7.00;5.40;;;;;;;12.58;72.94;99794.66;106428;1275;25358;-78
2022/05/30 05:44:08;;;;;;;7.50;5.00;;;;;;;12.61;72.93;99792.29;106089;1272;22651;-81
2022/05/30 05:46:35;;;;;;;6.10;5.40;;;;;;;12.62;72.82;99794.73;106219;1273;25246;-78
2022/05/30 05:49:03;;;;;;;9.90;5.30;;;;;;;12.63;72.78;99793.83;106128;1273;22735;-82
2022/05/30 05:51:30;;;;;;;9.10;5.80;;;;;;;12.62;72.93;99784.33;106074;1272;24256;-79
2022/05/30 05:54:03;;;;;;;9.70;6.20;;;;;;;12.67;72.88;99786.84;106181;1273;22543;-83
2022/05/30 05:56:31;;;;;;;7.50;6.50;;;;;;;12.65;72.85;99781.59;106089;1274;24242;-81
2022/05/30 05:58:59;;;;;;;9.40;6.00;;;;;;;12.61;72.91;99781.67;106173;1274;23969;-82
2022/05/30 06:01:30;;;;;;;10.60;6.00;;;;;;;12.62;73.19;99780.41;106446;1273;22556;-83
2022/05/30 06:04:00;;;;;;;7.90;6.00;;;;;;;12.66;73.27;99778.04;106145;1273;24270;-81
2022/05/30 06:06:46;;;;;;;9.00;6.80;;;;;;;12.70;73.19;99776.33;106217;1272;24333;-84
2022/05/30 06:09:39;;;;;;;10.00;6.40;;;;;;;12.71;73.27;99774.35;105980;1271;24880;-86
2022/05/30 06:12:25;;;;;;;7.90;6.40;;;;;;;12.71;73.54;99768.35;106291;1272;25205;-84
2022/05/30 06:14:52;;;;;;;6.50;5.90;;;;;;;12.75;73.58;99772.84;106529;1273;23978;-80
2022/05/30 06:17:18;;;;;;;9.20;6.50;;;;;;;12.80;73.70;99773.40;106398;1272;24327;-83
2022/05/30 06:19:47;;;;;;;7.00;5.80;;;;;;;12.82;73.83;99766.63;106208;1273;22557;-83
2022/05/30 06:22:14;;;;;;;11.20;6.80;;;;;;;12.94;73.79;99769.65;106596;1273;25644;-83
2022/05/30 06:24:42;;;;;;;13.20;7.40;;;;;;;12.98;73.54;99770.92;106295;1273;25248;-83
2022/05/30 06:27:27;;;;;;;8.80;6.30;;;;;;;13.03;73.36;99769.91;106239;1273;22558;-78
2022/05/30 06:30:29;;;;;;;11.20;6.40;;;;;;;13.05;73.28;99765.98;106108;1273;25402;-82
2022/05/30 06:32:56;;;;;;;6.60;5.40;;;;;;;13.04;73.17;99766.01;105952;1274;22552;-84
2022/05/30 06:35:46;;;;;;;6.90;6.10;;;;;;;13.04;73.19;99761.23;106043;1273;22551;-81
2022/05/30 06:38:14;;;;;;;7.90;5.90;;;;;;;13.08;73.47;99765.55;106118;1273;22553;-82
2022/05/30 06:40:54;;;;;;;7.50;6.00;;;;;;;13.15;73.55;99765.86;106037;1273;25310;-83
2022/05/30 06:43:27;;;;;;;8.90;6.00;;;;;;;13.19;73.45;99769.27;105982;1273;22760;-82
2022/05/30 06:46:24;;;;;;;8.10;6.30;;;;;;;13.23;73.46;99766.50;105562;1278;22550;-82
2022/05/30 06:49:10;;;;;;;;;;;;;;;13.23;73.06;99766.14;105699;1276;22745;-80
2022/05/30 06:51:48;;;;;;;9.70;5.20;;;;;;;13.14;73.40;99766.06;105597;1278;22538;-82
2022/05/30 06:54:15;;;;;;;7.70;5.50;;;;;;;13.20;73.65;99767.83;105708;1277;24324;-82
2022/05/30 06:59:30;;;;;;;8.90;5.40;;;;;;;13.28;73.55;99769.73;105445;1278;22598;-82
2022/05/30 07:02:00;;;;;;;9.60;5.10;;;;;;;13.30;73.70;99764.34;105664;1278;22554;-79
2022/05/30 07:04:47;;;;;;;6.00;4.80;;;;;;;13.36;73.65;99770.89;106105;1273;24306;-85
2022/05/30 07:07:32;;;;;;;7.80;4.90;;;;;;;13.42;73.69;99768.05;106187;1273;24244;-83
2022/05/30 07:10:20;;;;;;;3.50;3.10;;;;;;;13.47;73.34;99770.02;105998;1273;25308;-85
2022/05/30 07:12:55;;;;;;;6.70;3.30;;;;;;;13.48;73.13;99765.75;106091;1273;25551;-83
2022/05/30 07:15:24;;;;;;;4.70;3.40;;;;;;;13.50;72.74;99768.52;106178;1273;25298;-83
2022/05/30 07:17:52;;;;;;;6.90;3.70;;;;;;;13.48;72.44;99762.38;106240;1273;22592;-83
2022/05/30 07:20:19;;;;;;;3.80;3.40;;;;;;;13.49;72.63;99763.08;106347;1273;23430;-83
2022/05/30 07:23:06;;;;;;;5.60;3.50;;;;;;;13.54;72.88;99769.30;106202;1272;24199;-87
2022/05/30 07:25:57;;;;;;;5.40;3.20;;;;;;;13.58;72.72;99769.90;106183;1270;22855;-84
2022/05/30 07:28:43;;;;;;;5.10;3.20;;;;;;;13.60;72.49;99768.95;106373;1270;22545;-82
2022/05/30 07:31:29;;;;;;;5.00;2.90;;;;;;;13.55;71.94;99770.16;106499;1270;25377;-80
2022/05/30 07:34:15;;;;;;;4.40;2.90;;;;;;;13.46;72.18;99770.76;106510;1270;25268;-82
2022/05/30 07:37:00;;;;;;;4.70;3.20;;;;;;;13.48;72.29;99773.71;106542;1270;23943;-83
2022/05/30 07:39:50;;;;;;;3.70;2.50;;;;;;;13.44;71.94;99768.86;106280;1270;24486;-82
2022/05/30 07:42:29;;;;;;;6.60;2.90;;;;;;;13.43;72.23;99772.96;106646;1270;22528;-81
2022/05/30 07:45:11;;;;;;;3.80;2.40;;;;;;;13.49;72.23;99772.10;106589;1270;23207;-83
2022/05/30 07:48:17;;;;;;;9.30;3.00;;;;;;;13.53;72.34;99772.00;106328;1277;22608;-82
2022/05/30 07:51:12;;;;;;;2.70;2.50;;;;;;;13.54;72.39;99775.88;106422;1277;22604;-82
2022/05/30 07:53:51;;;;;;;5.60;2.30;;;;;;;13.58;72.39;99775.36;106480;1277;22546;-82
2022/05/30 07:56:41;;;;;;;5.80;4.00;;;;;;;13.64;72.06;99774.14;106377;1277;22839;-82
2022/05/30 07:59:09;;;;;;;3.90;3.10;;;;;;;13.68;72.06;99767.30;106245;1277;22687;-85
2022/05/30 08:01:36;;;;;;;2.30;2.10;;;;;;;13.69;71.93;99770.08;106335;1277;22542;-82
2022/05/30 08:04:03;;;;;;;4.30;2.90;;;;;;;13.68;72.06;99764.27;106311;1277;24300;-84
2022/05/30 08:06:45;;;;;;;6.00;2.80;;;;;;;13.68;72.31;99765.17;106125;1277;22698;-83
2022/05/30 08:09:31;;;;;;;3.20;2.80;;;;;;;13.69;72.23;99763.71;106172;1277;22500;-80
2022/05/30 08:12:05;;;;;;;2.90;2.20;;;;;;;13.69;71.98;99762.28;106034;1277;24261;-83
2022/05/30 08:14:53;;;;;;;3.70;2.10;;;;;;;13.62;71.57;99763.59;106043;1277;25659;-83
2022/05/30 08:17:22;;;;;;;2.80;2.20;;;;;;;13.54;71.83;99764.17;105961;1277;23437;-86
2022/05/30 08:19:49;;;;;;;3.60;2.20;;;;;;;13.56;72.09;99765.18;106311;1270;22715;-83
2022/05/30 08:22:22;;;;;;;4.90;2.60;;;;;;;13.58;72.47;99763.70;106600;1270;22549;-83
2022/05/30 08:24:50;;;;;;;3.90;3.10;;;;;;;13.65;72.49;99768.11;106526;1270;22525;-82
2022/05/30 08:27:20;;;;;;;6.30;3.40;;;;;;;13.72;72.18;99768.21;106698;1270;25368;-82
2022/05/30 08:29:50;;;;;;;3.30;2.50;;;;;;;13.75;72.12;99767.41;107755;1270;22562;-82
2022/05/30 08:32:18;;;;;;;4.00;2.80;;;;;;;13.79;72.23;99765.51;107312;1270;22609;-83
2022/05/30 08:34:59;;;;;;;2.60;2.40;;;;;;;13.78;71.86;99762.88;106792;1270;22687;-79
2022/05/30 08:37:30;;;;;;;3.70;2.20;;;;;;;13.79;71.78;99758.63;106492;1271;22696;-83
2022/05/30 08:42:50;;;;;;;6.20;3.00;;;;;;;13.89;71.69;99765.74;106206;1270;22682;-83
2022/05/30 08:45:37;;;;;;;3.80;3.30;;;;;;;13.89;71.84;99765.38;106543;1270;22528;-84
2022/05/30 08:48:47;;;;;;;3.10;2.30;;;;;;;13.90;71.47;99765.16;106474;1270;22543;-81
2022/05/30 08:51:30;;;;;;;5.60;3.00;;;;;;;13.88;71.99;99767.52;106544;1270;22527;-84
2022/05/30 08:54:35;;;;;;;3.00;2.30;;;;;;;13.91;71.51;99770.25;106561;1270;25243;-83
2022/05/30 08:57:26;;;;;;;2.60;2.40;;;;;;;13.92;71.68;99764.74;106689;1270;22596;-85
2022/05/30 09:00:14;;;;;;;3.00;2.60;;;;;;;13.97;71.56;99765.27;106393;1270;25245;-86
2022/05/30 09:03:24;;;;;;;3.90;2.70;;;;;;;14.04;71.77;99764.88;106282;1270;24262;-83
2022/05/30 09:05:59;;;;;;;3.90;2.30;;;;;;;14.13;71.77;99765.11;106272;1270;22529;-84
2022/05/30 09:08:37;;;;;;;3.80;2.50;;;;;;;14.10;71.41;99764.48;106168;1271;22718;-83
2022/05/30 09:11:40;;;;;;;4.20;2.90;;;;;;;14.07;71.19;99760.70;106421;1268;24221;-83
2022/05/30 09:14:15;;;;;;;;;;;;;;;14.01;71.14;99762.13;106169;1274;22719;-87
2022/05/30 09:16:51;;;;;;;2.70;2.50;;;;;;;13.97;71.36;99760.88;106255;1274;22654;-83
2022/05/30 09:19:23;;;;;;;3.30;2.80;;;;;;;13.96;71.69;99759.84;106024;1274;24321;-82
2022/05/30 09:21:53;;;;;;;4.20;2.50;;;;;;;14.02;71.74;99760.70;106272;1274;23101;-84
2022/05/30 09:24:20;;;;;;;3.60;3.30;;;;;;;14.04;71.55;99767.17;105812;1280;24261;-81
2022/05/30 09:26:48;;;;;;;3.80;2.60;;;;;;;14.06;71.72;99765.17;105631;1279;22573;-81
2022/05/30 09:29:19;;;;;;;3.40;2.70;;;;;;;14.08;71.45;99767.77;107375;1280;22631;-81
2022/05/30 09:32:10;;;;;;;4.30;2.50;;;;;;;14.12;71.59;99769.23;108172;1279;22726;-79
2022/05/30 09:34:51;;;;;;;3.30;2.90;;;;;;;14.19;71.50;99767.58;108174;1279;22596;-80
2022/05/30 09:37:38;;;;;;;2.80;2.50;;;;;;;14.18;71.26;99768.13;107598;1279;23306;-80
2022/05/30 09:40:13;;;;;;;2.90;2.40;;;;;;;14.20;71.50;99767.17;106404;1276;25252;-85
2022/05/30 09:43:00;;;;;;;3.30;2.20;;;;;;;14.21;70.96;99767.52;106093;1270;25370;-84
2022/05/30 09:45:30;;;;;;;4.00;2.80;;;;;;;14.26;71.29;99764.48;106278;1272;25363;-83
2022/05/30 09:48:13;;;;;;;2.80;2.50;;;;;;;14.41;71.72;99763.83;106278;1270;23028;-82
2022/05/30 09:51:06;;;;;;;5.00;2.50;;;;;;;14.55;71.31;99762.06;106281;1272;22531;-79
2022/05/30 09:53:47;;;;;;;2.80;2.60;;;;;;;14.59;70.77;99763.16;106467;1270;22556;-80
2022/05/30 09:56:18;;;;;;;4.10;2.70;;;;;;;14.62;70.36;99760.77;106310;1272;25357;-82
2022/05/30 09:59:06;;;;;;;4.10;2.80;;;;;;;14.64;70.46;99755.02;106303;1271;22548;-80
2022/05/30 10:01:54;;;;;;;2.90;2.40;;;;;;;14.79;70.80;99760.88;106288;1270;22548;-83
2022/05/30 10:04:41;;;;;;;3.80;2.00;;;;;;;14.87;70.29;99758.84;106423;1270;22564;-83
2022/05/30 10:07:17;;;;;;;3.10;2.20;;;;;;;14.84;69.96;99757.86;106101;1270;22546;-83
2022/05/30 10:10:20;;;;;;;5.30;2.40;;;;;;;14.95;70.38;99757.48;106225;1274;22665;-81
2022/05/30 10:12:56;;;;;;;2.40;2.10;;;;;;;15.07;70.05;99756.52;106138;1274;22567;-84
2022/05/30 10:15:44;;;;;;;2.60;2.20;;;;;;;15.09;69.55;99758.73;106024;1274;22559;-82
2022/05/30 10:18:17;;;;;;;4.60;2.50;;;;;;;15.13;69.58;99759.30;106188;1277;22535;-82
2022/05/30 10:21:00;;;;;;;4.40;2.40;;;;;;;15.21;69.47;99760.39;106126;1274;22585;-83
2022/05/30 10:30:44;;;;;;;3.20;2.30;;;;;;;15.58;68.53;99762.52;106194;1274;22658;-82
2022/05/30 10:33:56;;;;;;;2.80;2.20;;;;;;;15.63;68.50;99760.90;105942;1274;22598;-81
2022/05/30 10:36:39;;;;;;;3.10;2.70;;;;;;;15.74;68.40;99765.98;106253;1270;22564;-83
2022/05/30 10:39:44;;;;;;;4.80;2.50;;;;;;;15.74;67.78;99770.40;106167;1270;22746;-84
2022/05/30 10:42:23;;;;;;;2.80;2.20;;;;;;;15.70;66.95;99774.64;106195;1270;24242;-83
2022/05/30 10:44:57;;;;;;;3.00;2.70;;;;;;;15.56;66.46;99774.14;106295;1270;22628;-83
2022/05/30 10:47:40;;;;;;;2.30;2.10;;;;;;;15.33;66.51;99778.92;106447;1270;25302;-83
2022/05/30 10:50:19;;;;;;;4.40;2.80;;;;;;;15.21;67.16;99781.34;106305;1270;25255;-83
2022/05/30 10:52:56;;;;;;;3.50;2.40;;;;;;;15.17;67.56;99781.48;106093;1273;22716;-83
2022/05/30 10:55:39;;;;;;;3.20;2.50;;;;;;;15.06;67.45;99783.30;106379;1270;22540;-83
2022/05/30 10:58:21;;;;;;;3.40;2.50;;;;;;;15.07;67.70;99792.11;105782;1274;22527;-83
2022/05/30 11:00:55;;;;;;;3.30;2.40;;;;;;;15.07;68.15;99795.15;106000;1274;24226;-82
2022/05/30 11:03:46;;;;;;;3.20;2.90;;;;;;;15.05;68.41;99798.96;106035;1274;22538;-83
2022/05/30 11:06:26;;;;;;;2.30;2.10;;;;;;;15.05;68.46;99798.76;105739;1276;22535;-81
2022/05/30 11:09:04;;;;;;;2.50;2.10;;;;;;;15.03;67.86;99797.96;105771;1274;23944;-80
2022/05/30 11:11:44;;;;;;;5.10;2.20;;;;;;;14.99;67.52;99795.98;105857;1274;24220;-84
2022/05/30 11:14:51;;;;;;;2.50;1.90;;;;;;;14.99;67.20;99796.35;105888;1274;22548;-86
2022/05/30 11:18:01;;;;;;;3.40;2.10;;;;;;;15.01;67.13;99796.96;107155;1270;22525;-81
2022/05/30 11:20:40;;;;;;;2.30;2.10;;;;;;;15.11;67.27;99787.55;106547;1271;22615;-82
2022/05/30 11:23:07;;;;;;;;;;;;;;;15.15;66.57;99793.27;106471;1270;25930;-82
2022/05/30 11:26:12;;;;;;;2.90;1.90;;;;;;;15.19;66.62;99795.80;106267;1270;25960;-84
2022/05/30 11:28:55;;;;;;;2.50;1.80;;;;;;;15.27;66.99;99794.42;106256;1270;22477;-83
2022/05/30 11:31:41;;;;;;;3.00;2.20;;;;;;;15.35;66.90;99793.91;106526;1268;24254;-83
2022/05/30 11:34:27;;;;;;;4.10;1.60;;;;;;;15.43;66.17;99792.39;106570;1270;25362;-84
2022/05/30 11:37:20;;;;;;;2.80;1.60;;;;;;;15.51;65.90;99794.38;106054;1270;255981;-82
2022/05/30 11:40:18;;;;;;;4.30;2.00;;;;;;;15.64;65.51;99794.23;106306;1270;23951;-82
2022/05/30 11:43:36;;;;;;;3.70;1.90;;;;;;;15.61;64.61;99795.61;106438;1270;25473;-83
2022/05/30 11:46:28;;;;;;;2.50;1.90;;;;;;;15.55;64.86;99795.48;106070;1271;22565;-83
2022/05/30 11:49:23;;;;;;;4.30;2.00;;;;;;;15.51;64.27;99794.91;106036;1270;24311;-84
2022/05/30 11:52:02;;;;;;;3.20;1.90;;;;;;;15.37;64.16;99796.50;106161;1270;24319;-83
2022/05/30 11:54:42;;;;;;;3.20;1.90;;;;;;;15.22;64.38;99799.02;106045;1270;23009;-81
2022/05/30 11:57:24;;;;;;;2.30;2.10;;;;;;;15.12;64.47;99799.92;106185;1270;24300;-82
2022/05/30 11:59:57;;;;;;;2.60;2.00;;;;;;;14.98;64.62;99801.14;106169;1271;24387;-83
2022/05/30 12:02:46;;;;;;;2.20;2.00;;;;;;;14.95;65.05;99801.61;106130;1270;25321;-82
2022/05/30 12:05:50;;;;;;;2.30;2.10;;;;;;;15.01;65.50;99800.14;106334;1270;22564;-82
2022/05/30 12:08:23;;;;;;;3.10;2.20;;;;;;;15.15;65.09;99798.07;106148;1270;25580;-81
2022/05/30 12:11:15;;;;;;;3.50;2.60;;;;;;;15.30;65.24;99803.35;106135;1270;25418;-81
2022/05/30 12:14:05;;;;;;;2.90;2.50;;;;;;;15.77;65.13;99800.29;106283;1270;22563;-82
2022/05/30 12:17:13;;;;;;;3.10;2.20;;;;;;;16.04;64.08;99795.70;106082;1271;23153;-82
2022/05/30 12:25:34;;;;;;;4.10;2.10;;;;;;;15.58;62.53;99794.63;107165;1271;23346;-84
2022/05/30 12:28:25;;;;;;;2.70;2.00;;;;;;;15.48;62.76;99802.11;106296;1271;22666;-84
2022/05/30 12:30:56;;;;;;;2.70;2.10;;;;;;;15.41;62.85;99802.56;106018;1271;25249;-81
2022/05/30 12:33:29;;;;;;;2.30;2.10;;;;;;;15.35;62.89;99801.39;106092;1271;22607;-82